• Join FlightAware (Why Join?)
  • Login
  • US Flag 
12:57PM EDT


 

Airport Tracker/Info


-or-


 

Live Flight TrackerFlight Track Log ✈ KAP66 ✈ 04-Jul-2013 ✈ KACK - KEWB

Flight Track Log - Related Links

Times and Time Zones

All times are in EDT time to prevent confusion due to time zone crossing. See the KAP66 flight status page for this flight to view local times or setup timezone preferences in your user account.

Time Position Orientation Groundspeed Altitude Reporting Facility
EDT Latitude Longitude Course Direction KTS MPH feet Rate Location/Type
11:51AM 41.3891 -70.3456 302° West  Level Estimated
11:52AM 41.4084 -70.3864 302° West  Level Estimated
11:53AM 41.4278 -70.4273 302° West  Level Estimated
11:54AM 41.4471 -70.4682 302° West  Level Estimated
11:55AM 41.4664 -70.5091 302° West  Level Estimated
11:56AM 41.4857 -70.5501 302° West  Level Estimated
11:57AM 41.5050 -70.5911 302° West  Level Estimated
11:58AM 41.5243 -70.6321 302° West  Level Estimated
11:59AM 41.5436 -70.6731 302° West  Level Estimated
12:00PM 41.5628 -70.7141 302° West  Level Estimated
12:01PM 41.5821 -70.7552 302° West  Level Estimated
12:02PM 41.6013 -70.7963 302° West  Level Estimated
12:03PM 41.6205 -70.8374 302° West  Level Estimated
12:04PM 41.6397 -70.8786 302° West  Level Estimated
12:05PM 41.6589 -70.9197 302° West  Level Estimated
12:06PM 41.6766 -70.9578 302° West  Level Estimated
12:07PM 41.6766 -70.9578 143° Southeast  Level Estimated
12:08PM 41.6766 -70.9578 143° Southeast  Level Estimated
12:09PM 41.6766 -70.9578 143° Southeast  Level Estimated
12:10PM 41.6766 -70.9578 143° Southeast  Level Estimated
12:11PM 41.6766 -70.9578 143° Southeast  Level Estimated
12:12PM 41.6766 -70.9578 143° Southeast  Level Estimated
12:13PM 41.6766 -70.9578 143° Southeast  Level Estimated
12:14PM 41.6766 -70.9578 143° Southeast  Level Estimated
12:15PM 41.6766 -70.9578 143° Southeast  Level Estimated
12:16PM 41.6766 -70.9578 143° Southeast  Level Estimated
12:17PM 41.6766 -70.9578 143° Southeast  Level Estimated
12:18PM 41.6766 -70.9578 143° Southeast  Level Estimated
12:19PM 41.6766 -70.9578 143° Southeast  Level Estimated
12:20PM 41.6766 -70.9578 143° Southeast  Level Estimated
12:21PM 41.6766 -70.9578 143° Southeast  Level Estimated
12:22PM 41.6766 -70.9578 143° Southeast  Level Estimated